createdAt,value
2022-12-06T00:01:32.212Z,27.63
2022-12-06T00:04:01.718Z,25.27
2022-12-06T00:06:30.708Z,30.45
2022-12-06T00:08:58.751Z,30.35
2022-12-06T00:11:28.528Z,29.70
2022-12-06T00:14:00.504Z,25.60
2022-12-06T00:16:28.518Z,26.65
2022-12-06T00:18:55.767Z,31.27
2022-12-06T00:21:28.480Z,26.48
2022-12-06T00:24:07.497Z,30.55
2022-12-06T00:26:39.840Z,32.50
2022-12-06T00:29:07.946Z,30.35
2022-12-06T00:31:35.800Z,28.02
2022-12-06T00:34:04.582Z,32.53
2022-12-06T00:36:33.634Z,27.38
2022-12-06T00:39:02.439Z,32.13
2022-12-06T00:41:29.439Z,28.92
2022-12-06T00:43:56.307Z,31.05
2022-12-06T00:46:26.408Z,28.10
2022-12-06T00:48:54.765Z,34.63
2022-12-06T00:51:22.598Z,27.58
2022-12-06T00:53:50.254Z,31.45
2022-12-06T00:56:18.037Z,24.92
2022-12-06T00:58:45.601Z,30.17
2022-12-06T01:01:21.723Z,29.52
2022-12-06T01:03:53.450Z,27.30
2022-12-06T01:06:23.112Z,32.92
2022-12-06T01:08:50.148Z,31.35
2022-12-06T01:11:17.618Z,35.03
2022-12-06T01:13:44.848Z,27.33
2022-12-06T01:16:20.672Z,32.15
2022-12-06T01:18:47.765Z,34.40
2022-12-06T01:21:17.279Z,25.85
2022-12-06T01:23:45.554Z,36.53
2022-12-06T01:26:25.337Z,33.25
2022-12-06T01:28:53.768Z,32.30
2022-12-06T01:31:21.370Z,41.20
2022-12-06T01:33:48.407Z,32.97
2022-12-06T01:36:24.935Z,28.42
2022-12-06T01:38:57.307Z,36.63
2022-12-06T01:41:26.289Z,32.05
2022-12-06T01:43:54.273Z,28.75
2022-12-06T01:46:33.159Z,31.00
2022-12-06T01:49:08.434Z,26.45
2022-12-06T01:51:36.263Z,31.08
2022-12-06T01:54:05.714Z,30.10
2022-12-06T01:56:32.693Z,31.80
2022-12-06T01:59:00.316Z,38.03
2022-12-06T02:01:30.058Z,30.98
2022-12-06T02:03:59.909Z,32.28
2022-12-06T02:06:28.303Z,29.85
2022-12-06T02:08:57.141Z,29.20
2022-12-06T02:11:24.276Z,32.78
2022-12-06T02:13:51.568Z,29.55
2022-12-06T02:16:37.464Z,32.13
2022-12-06T02:19:42.018Z,30.38
2022-12-06T02:22:23.224Z,28.27
2022-12-06T02:25:34.178Z,27.80
2022-12-06T02:28:20.102Z,41.03
2022-12-06T02:31:00.112Z,26.98
2022-12-06T02:33:46.266Z,30.63
2022-12-06T02:36:29.539Z,29.20
2022-12-06T02:39:02.582Z,45.97
2022-12-06T02:41:40.306Z,36.83
2022-12-06T02:44:12.204Z,27.52
2022-12-06T02:46:41.527Z,35.13
2022-12-06T02:49:10.173Z,37.97
2022-12-06T02:51:38.347Z,33.45
2022-12-06T02:54:09.009Z,33.28
2022-12-06T02:56:36.131Z,29.55
2022-12-06T02:59:03.994Z,30.60
2022-12-06T03:01:33.504Z,35.33
2022-12-06T03:04:09.287Z,37.78
2022-12-06T03:06:56.042Z,35.40
2022-12-06T03:10:03.678Z,30.58
2022-12-06T03:12:55.941Z,30.75
2022-12-06T03:15:57.684Z,37.78
2022-12-06T03:18:51.830Z,28.17
2022-12-06T03:21:25.445Z,34.88
2022-12-06T03:23:52.760Z,31.55
2022-12-06T03:26:25.312Z,30.55
2022-12-06T03:28:56.032Z,30.40
2022-12-06T03:31:24.162Z,35.30
2022-12-06T03:34:18.799Z,28.70
2022-12-06T03:36:47.841Z,30.85
2022-12-06T03:39:21.310Z,29.85
2022-12-06T03:41:53.810Z,32.13
2022-12-06T03:44:21.543Z,30.98
2022-12-06T03:46:52.862Z,34.75
2022-12-06T03:49:29.719Z,27.00
2022-12-06T03:51:56.540Z,44.22
2022-12-06T03:54:23.556Z,32.53
2022-12-06T03:56:50.555Z,26.90
2022-12-06T03:59:17.403Z,25.92
2022-12-06T04:01:44.614Z,26.88
2022-12-06T04:04:11.780Z,28.70
2022-12-06T04:06:38.623Z,28.08
2022-12-06T04:09:23.858Z,30.80
2022-12-06T04:11:50.648Z,33.28
2022-12-06T04:14:17.605Z,27.15
2022-12-06T04:17:03.022Z,27.90
2022-12-06T04:19:29.863Z,28.08
2022-12-06T04:22:15.417Z,28.13
2022-12-06T04:24:42.186Z,25.52
2022-12-06T04:27:27.840Z,32.30
2022-12-06T04:30:13.330Z,30.50
2022-12-06T04:32:58.920Z,30.42
2022-12-06T04:35:44.184Z,28.48
2022-12-06T04:38:29.677Z,30.70
2022-12-06T04:40:56.574Z,30.40
2022-12-06T04:43:42.117Z,27.27
2022-12-06T04:46:14.115Z,30.33
2022-12-06T04:48:41.674Z,25.33
2022-12-06T04:51:12.988Z,26.40
2022-12-06T04:53:40.016Z,24.73
2022-12-06T04:56:06.978Z,27.75
2022-12-06T04:58:34.021Z,26.45
2022-12-06T05:01:00.837Z,25.92
2022-12-06T05:03:27.763Z,26.58
2022-12-06T05:05:54.593Z,23.67
2022-12-06T05:08:21.555Z,26.13
2022-12-06T05:10:51.778Z,30.40
2022-12-06T05:13:20.266Z,22.55
2022-12-06T05:16:07.234Z,31.33
2022-12-06T05:18:34.670Z,26.23
2022-12-06T05:21:06.882Z,22.02
2022-12-06T05:23:34.910Z,27.50
2022-12-06T05:26:04.179Z,23.23
2022-12-06T05:28:32.067Z,26.92
2022-12-06T05:30:58.944Z,25.30
2022-12-06T05:33:26.047Z,28.35
2022-12-06T05:35:52.987Z,16.88
2022-12-06T05:38:20.956Z,24.00
2022-12-06T05:40:47.946Z,24.60
2022-12-06T05:43:15.907Z,20.70
2022-12-06T05:45:43.485Z,22.92
2022-12-06T05:48:10.411Z,23.27
2022-12-06T05:50:37.408Z,21.55
2022-12-06T05:53:04.722Z,20.73
2022-12-06T05:55:31.557Z,20.58
2022-12-06T05:57:58.473Z,19.35
2022-12-06T06:00:25.340Z,19.33
2022-12-06T06:02:52.219Z,20.67
2022-12-06T06:05:19.187Z,20.23
2022-12-06T06:07:46.031Z,21.00
2022-12-06T06:10:13.131Z,18.70
2022-12-06T06:12:40.056Z,18.33
2022-12-06T06:15:07.306Z,18.00
2022-12-06T06:17:37.391Z,18.67
2022-12-06T06:20:06.240Z,19.40
2022-12-06T06:22:35.221Z,19.50
2022-12-06T06:25:02.721Z,21.60
2022-12-06T06:27:32.147Z,17.98
2022-12-06T06:29:59.162Z,17.60
2022-12-06T06:32:26.191Z,21.65
2022-12-06T06:34:53.019Z,24.98
2022-12-06T06:37:19.787Z,19.80
2022-12-06T06:39:46.595Z,17.42
2022-12-06T06:42:13.347Z,19.70
2022-12-06T06:44:40.219Z,18.00
2022-12-06T06:47:07.083Z,21.50
2022-12-06T06:49:33.848Z,18.00
2022-12-06T06:52:00.683Z,18.13
2022-12-06T06:54:30.148Z,18.85
2022-12-06T06:56:57.490Z,17.20
2022-12-06T06:59:25.082Z,15.38
2022-12-06T07:01:52.190Z,16.33
2022-12-06T07:04:19.081Z,15.82
2022-12-06T07:06:45.977Z,16.95
2022-12-06T07:09:29.332Z,17.60
2022-12-06T07:11:56.185Z,15.48
2022-12-06T07:14:23.155Z,19.65
2022-12-06T07:16:50.007Z,19.15
2022-12-06T07:19:16.866Z,16.60
2022-12-06T07:21:46.408Z,17.83
2022-12-06T07:24:13.281Z,18.48
2022-12-06T07:26:40.149Z,15.88
2022-12-06T07:29:06.946Z,18.50
2022-12-06T07:31:33.830Z,18.95
2022-12-06T07:34:02.076Z,17.90
2022-12-06T07:36:33.048Z,18.63
2022-12-06T07:39:00.670Z,24.17
2022-12-06T07:41:48.498Z,25.50
2022-12-06T07:44:35.803Z,25.23
2022-12-06T07:47:03.318Z,23.63
2022-12-06T07:49:30.691Z,23.98
2022-12-06T07:51:57.652Z,22.25
2022-12-06T07:54:25.607Z,26.33
2022-12-06T07:56:52.527Z,20.98
2022-12-06T07:59:19.446Z,31.88
2022-12-06T08:01:46.448Z,24.75
2022-12-06T08:04:13.754Z,24.52
2022-12-06T08:06:41.026Z,26.15
2022-12-06T08:09:08.321Z,22.55
2022-12-06T08:11:36.013Z,24.27
2022-12-06T08:14:04.674Z,32.58
2022-12-06T08:16:31.624Z,26.95
2022-12-06T08:18:58.515Z,27.30
2022-12-06T08:21:26.671Z,26.35
2022-12-06T08:23:54.515Z,33.97
2022-12-06T08:26:21.579Z,28.73
2022-12-06T08:28:48.430Z,33.17
2022-12-06T08:31:18.351Z,35.25
2022-12-06T08:33:45.754Z,29.63
2022-12-06T08:36:16.426Z,42.08
2022-12-06T08:38:43.575Z,31.48
2022-12-06T08:41:30.933Z,36.83
2022-12-06T08:43:59.581Z,34.28
2022-12-06T08:46:27.400Z,34.45
2022-12-06T08:48:54.740Z,38.47
2022-12-06T08:51:21.842Z,30.60
2022-12-06T08:53:48.651Z,30.00
2022-12-06T08:56:15.757Z,31.40
2022-12-06T08:58:42.609Z,26.73
2022-12-06T09:01:18.834Z,41.85
2022-12-06T09:03:45.736Z,32.35
2022-12-06T09:06:12.855Z,31.55
2022-12-06T09:08:39.746Z,32.08
2022-12-06T09:11:07.993Z,38.88
2022-12-06T09:13:36.980Z,36.97
2022-12-06T09:16:24.102Z,36.97
2022-12-06T09:18:54.129Z,34.95
2022-12-06T09:21:25.917Z,29.15
2022-12-06T09:23:55.950Z,29.73
2022-12-06T09:26:23.191Z,29.27
2022-12-06T09:28:51.594Z,32.35
2022-12-06T09:31:19.697Z,33.80
2022-12-06T09:33:47.310Z,33.88
2022-12-06T09:36:18.967Z,32.13
2022-12-06T09:38:47.873Z,31.42
2022-12-06T09:41:50.358Z,33.72
2022-12-06T09:44:29.161Z,35.25
2022-12-06T09:47:07.736Z,42.72
2022-12-06T09:49:47.485Z,68.47
2022-12-06T09:52:25.425Z,38.58
2022-12-06T09:55:04.200Z,41.33
2022-12-06T09:58:04.432Z,40.00
2022-12-06T10:00:42.604Z,51.22
2022-12-06T10:03:17.168Z,43.25
2022-12-06T10:06:02.761Z,46.92
2022-12-06T10:08:39.041Z,39.33
2022-12-06T10:11:23.738Z,41.00
2022-12-06T10:14:12.772Z,33.95
2022-12-06T10:16:59.121Z,35.17
2022-12-06T10:19:52.012Z,40.47
2022-12-06T10:22:38.467Z,34.17
2022-12-06T10:25:16.640Z,37.25
2022-12-06T10:27:57.209Z,32.50
2022-12-06T10:30:23.988Z,44.28
2022-12-06T10:33:05.702Z,37.50
2022-12-06T10:35:50.921Z,40.47
2022-12-06T10:38:30.705Z,42.25
2022-12-06T10:41:27.110Z,39.80
2022-12-06T10:44:06.656Z,44.03
2022-12-06T10:47:04.067Z,42.58
2022-12-06T10:49:33.960Z,36.42
2022-12-06T10:52:13.147Z,39.25
2022-12-06T10:54:50.917Z,43.30
2022-12-06T10:57:31.050Z,42.45
2022-12-06T11:00:10.357Z,37.38
2022-12-06T11:02:40.341Z,43.72
2022-12-06T11:05:30.706Z,50.67
2022-12-06T11:08:23.740Z,39.92
2022-12-06T11:10:51.395Z,37.80
2022-12-06T11:13:40.164Z,39.35
2022-12-06T11:16:32.737Z,40.63
2022-12-06T11:19:14.860Z,46.55
2022-12-06T11:21:50.040Z,43.15
2022-12-06T11:24:36.737Z,44.10
2022-12-06T11:27:33.318Z,39.85
2022-12-06T11:30:01.949Z,33.88
2022-12-06T11:32:29.292Z,37.78
2022-12-06T11:34:59.151Z,36.60
2022-12-06T11:37:32.472Z,40.25
2022-12-06T11:40:18.091Z,40.83
2022-12-06T11:42:44.989Z,43.17
2022-12-06T11:45:22.025Z,43.00
2022-12-06T11:47:48.926Z,41.70
2022-12-06T11:50:20.517Z,49.33
2022-12-06T11:52:55.668Z,46.78
2022-12-06T11:55:26.399Z,39.33
2022-12-06T11:58:16.619Z,52.72
2022-12-06T12:01:19.186Z,53.65
2022-12-06T12:03:47.566Z,52.50
2022-12-06T12:06:26.344Z,42.55
2022-12-06T12:09:05.061Z,45.55
2022-12-06T12:11:34.599Z,51.83
2022-12-06T12:14:04.079Z,41.60
2022-12-06T12:16:43.283Z,51.55
2022-12-06T12:19:50.284Z,50.88
2022-12-06T12:23:04.596Z,47.45
2022-12-06T12:25:34.503Z,50.00
2022-12-06T12:28:02.748Z,47.80
2022-12-06T12:30:40.552Z,50.83
2022-12-06T12:33:07.400Z,49.35
2022-12-06T12:35:35.687Z,50.80
2022-12-06T12:38:09.308Z,46.30
2022-12-06T12:40:37.762Z,52.78
2022-12-06T12:43:12.093Z,53.83
2022-12-06T12:45:40.979Z,47.60
2022-12-06T12:48:25.073Z,47.72
2022-12-06T12:51:00.472Z,50.75
2022-12-06T12:53:31.526Z,61.95
2022-12-06T12:56:19.378Z,60.00
2022-12-06T12:58:52.226Z,55.20
2022-12-06T13:01:24.863Z,64.53
2022-12-06T13:03:57.644Z,50.95
2022-12-06T13:06:31.657Z,51.83
2022-12-06T13:09:03.465Z,64.20
2022-12-06T13:11:36.492Z,57.88
2022-12-06T13:14:04.098Z,57.33
2022-12-06T13:16:36.767Z,57.77
2022-12-06T13:19:03.652Z,52.60
2022-12-06T13:21:32.258Z,53.97
2022-12-06T13:24:27.012Z,55.45
2022-12-06T13:26:58.492Z,56.15
2022-12-06T13:29:30.167Z,61.90
2022-12-06T13:31:59.724Z,54.67
2022-12-06T13:34:37.613Z,65.30
2022-12-06T13:37:25.169Z,56.60
2022-12-06T13:39:52.146Z,54.92
2022-12-06T13:42:37.365Z,50.25
2022-12-06T13:45:06.320Z,48.92
2022-12-06T13:47:33.067Z,60.42
2022-12-06T13:50:24.674Z,49.15
2022-12-06T13:52:51.440Z,58.53
2022-12-06T13:55:24.536Z,54.03
2022-12-06T13:57:57.212Z,49.17
2022-12-06T14:00:29.785Z,54.47
2022-12-06T14:03:03.755Z,81.97
2022-12-06T14:06:03.390Z,88.00
2022-12-06T14:08:43.451Z,68.40
2022-12-06T14:11:17.977Z,71.57
2022-12-06T14:13:58.884Z,94.15
2022-12-06T14:16:34.621Z,66.85
2022-12-06T14:19:13.326Z,66.10
2022-12-06T14:21:42.756Z,71.50
2022-12-06T14:24:31.442Z,73.22
2022-12-06T14:27:14.875Z,80.15
2022-12-06T14:29:43.644Z,67.13
2022-12-06T14:32:10.848Z,58.22
2022-12-06T14:34:37.986Z,70.60
2022-12-06T14:37:21.727Z,57.85
2022-12-06T14:39:53.021Z,61.97
2022-12-06T14:42:39.004Z,60.90
2022-12-06T14:45:15.895Z,62.92
2022-12-06T14:47:45.012Z,67.13
2022-12-06T14:50:32.460Z,59.85
2022-12-06T14:53:00.706Z,61.70
2022-12-06T14:55:30.757Z,62.05
2022-12-06T14:58:04.147Z,74.22
2022-12-06T15:00:38.389Z,52.65
2022-12-06T15:03:08.337Z,62.70
2022-12-06T15:05:43.979Z,54.70
2022-12-06T15:08:40.205Z,50.22
2022-12-06T15:11:10.109Z,56.22
2022-12-06T15:13:38.200Z,44.20
2022-12-06T15:16:08.124Z,50.63
2022-12-06T15:18:40.578Z,55.05
2022-12-06T15:21:15.192Z,49.72
2022-12-06T15:23:56.369Z,57.65
2022-12-06T15:26:24.737Z,54.80
2022-12-06T15:28:51.899Z,43.25
2022-12-06T15:31:27.514Z,48.53
2022-12-06T15:33:55.625Z,43.88
2022-12-06T15:36:25.161Z,50.55
2022-12-06T15:38:52.365Z,52.03
2022-12-06T15:41:21.974Z,48.55
2022-12-06T15:43:50.175Z,52.38
2022-12-06T15:46:23.789Z,46.78
2022-12-06T15:48:52.353Z,44.35
2022-12-06T15:51:24.815Z,48.55
2022-12-06T15:53:52.699Z,46.30
2022-12-06T15:56:24.183Z,44.75
2022-12-06T15:58:51.834Z,44.15
2022-12-06T16:01:27.947Z,44.08
2022-12-06T16:03:56.653Z,40.10
2022-12-06T16:06:25.248Z,41.70
2022-12-06T16:08:52.524Z,42.35
2022-12-06T16:11:22.197Z,41.15
2022-12-06T16:13:50.607Z,42.47
2022-12-06T16:16:20.306Z,43.53
2022-12-06T16:18:48.802Z,47.00
2022-12-06T16:21:22.412Z,39.97
2022-12-06T16:24:16.929Z,39.05
2022-12-06T16:26:45.297Z,36.58
2022-12-06T16:29:18.691Z,44.60
2022-12-06T16:31:45.852Z,39.40
2022-12-06T16:34:13.078Z,33.90
2022-12-06T16:37:00.823Z,33.08
2022-12-06T16:39:29.608Z,36.25
2022-12-06T16:41:56.644Z,38.55
2022-12-06T16:44:23.711Z,38.80
2022-12-06T16:46:50.694Z,33.08
2022-12-06T16:52:10.249Z,40.38
2022-12-06T16:54:41.219Z,33.50
2022-12-06T16:57:10.155Z,32.95
2022-12-06T16:59:37.108Z,36.35
2022-12-06T17:02:08.485Z,43.55
2022-12-06T17:04:38.658Z,40.13
2022-12-06T17:07:05.793Z,28.10
2022-12-06T17:09:32.694Z,38.30
2022-12-06T17:12:02.754Z,37.58
2022-12-06T17:14:30.089Z,41.38
2022-12-06T17:16:59.986Z,32.63
2022-12-06T17:19:28.427Z,33.20
2022-12-06T17:21:55.992Z,39.92
2022-12-06T17:24:25.442Z,36.40
2022-12-06T17:26:56.091Z,33.90
2022-12-06T17:29:23.845Z,35.67
2022-12-06T17:31:53.016Z,33.53
2022-12-06T17:34:20.566Z,37.22
2022-12-06T17:36:48.757Z,34.08
2022-12-06T17:39:18.655Z,31.52
2022-12-06T17:42:04.394Z,34.55
2022-12-06T17:44:31.451Z,32.58
2022-12-06T17:46:58.239Z,33.60
2022-12-06T17:49:26.606Z,34.40
2022-12-06T17:51:53.741Z,34.35
2022-12-06T17:54:21.170Z,31.60
2022-12-06T17:56:50.254Z,35.75
2022-12-06T17:59:19.880Z,30.83
2022-12-06T18:04:34.034Z,33.00
2022-12-06T18:07:00.834Z,33.83
2022-12-06T18:09:27.781Z,41.70
2022-12-06T18:11:55.785Z,34.97
2022-12-06T18:14:22.709Z,37.97
2022-12-06T18:16:49.623Z,37.10
2022-12-06T18:19:19.075Z,42.30
2022-12-06T18:21:46.077Z,40.55
2022-12-06T18:24:25.600Z,34.28
2022-12-06T18:26:54.685Z,38.13
2022-12-06T18:29:23.491Z,46.47
2022-12-06T18:31:50.948Z,41.85
2022-12-06T18:34:18.098Z,37.60
2022-12-06T18:36:45.006Z,43.90
2022-12-06T18:39:15.969Z,33.65
2022-12-06T18:41:46.200Z,31.15
2022-12-06T18:44:13.453Z,33.50
2022-12-06T18:46:42.538Z,31.05
2022-12-06T18:49:11.211Z,27.33
2022-12-06T18:51:38.840Z,30.60
2022-12-06T18:54:06.400Z,32.35
2022-12-06T18:56:34.640Z,31.80
2022-12-06T18:59:05.267Z,36.22
2022-12-06T19:01:34.602Z,33.20
2022-12-06T19:04:05.762Z,27.20
2022-12-06T19:06:35.488Z,24.80
2022-12-06T19:09:06.458Z,29.88
2022-12-06T19:11:36.576Z,41.92
2022-12-06T19:14:04.224Z,31.65
2022-12-06T19:16:38.781Z,38.20
2022-12-06T19:19:12.812Z,34.03
2022-12-06T19:21:43.729Z,36.70
2022-12-06T19:24:12.135Z,35.15
2022-12-06T19:26:38.997Z,30.15
2022-12-06T19:29:05.942Z,41.92
2022-12-06T19:31:33.352Z,33.55
2022-12-06T19:34:00.482Z,29.02
2022-12-06T19:36:29.398Z,36.78
2022-12-06T19:39:01.334Z,32.63
2022-12-06T19:41:28.765Z,31.88
2022-12-06T19:44:14.375Z,30.95
2022-12-06T19:46:45.726Z,35.60
2022-12-06T19:49:15.616Z,37.72
2022-12-06T19:51:45.401Z,33.35
2022-12-06T19:54:15.909Z,32.53
2022-12-06T19:56:42.746Z,50.22
2022-12-06T19:59:12.923Z,31.67
2022-12-06T20:01:43.061Z,28.45
2022-12-06T20:04:18.432Z,26.55
2022-12-06T20:06:45.908Z,40.92
2022-12-06T20:09:13.353Z,34.55
2022-12-06T20:11:59.903Z,38.22
2022-12-06T20:14:28.041Z,33.88
2022-12-06T20:16:55.009Z,34.30
2022-12-06T20:19:22.454Z,29.83
2022-12-06T20:21:49.458Z,36.20
2022-12-06T20:24:19.749Z,30.23
2022-12-06T20:26:49.372Z,37.35
2022-12-06T20:29:18.051Z,33.00
2022-12-06T20:31:45.727Z,33.30
2022-12-06T20:34:15.476Z,35.90
2022-12-06T20:36:43.679Z,37.03
2022-12-06T20:39:21.785Z,45.40
2022-12-06T20:41:50.182Z,37.15
2022-12-06T20:44:18.477Z,36.97
2022-12-06T20:46:46.195Z,36.40
2022-12-06T20:49:13.073Z,33.13
2022-12-06T20:51:40.148Z,33.60
2022-12-06T20:54:07.797Z,35.67
2022-12-06T20:56:42.507Z,30.63
2022-12-06T20:59:11.005Z,31.90
2022-12-06T21:01:40.799Z,36.38
2022-12-06T21:04:08.824Z,40.35
2022-12-06T21:06:35.828Z,35.08
2022-12-06T21:09:02.785Z,33.70
2022-12-06T21:11:29.821Z,31.95
2022-12-06T21:13:57.820Z,32.75
2022-12-06T21:16:30.216Z,36.47
2022-12-06T21:19:05.853Z,32.15
2022-12-06T21:21:38.282Z,27.83
2022-12-06T21:24:08.116Z,28.77
2022-12-06T21:26:35.315Z,33.55
2022-12-06T21:29:02.441Z,30.42
2022-12-06T21:31:32.099Z,36.53
2022-12-06T21:33:59.511Z,35.97
2022-12-06T21:36:26.588Z,37.85
2022-12-06T21:38:54.227Z,35.17
2022-12-06T21:41:21.885Z,36.17
2022-12-06T21:43:49.101Z,36.47
2022-12-06T21:46:19.100Z,35.63
2022-12-06T21:48:53.249Z,37.25
2022-12-06T21:51:20.438Z,40.65
2022-12-06T21:53:47.581Z,39.05
2022-12-06T21:56:20.151Z,42.47
2022-12-06T21:58:48.493Z,43.17
2022-12-06T22:01:22.383Z,45.53
2022-12-06T22:03:50.666Z,44.65
2022-12-06T22:06:17.801Z,37.65
2022-12-06T22:08:45.930Z,35.40
2022-12-06T22:11:16.702Z,34.28
2022-12-06T22:13:43.900Z,33.67
2022-12-06T22:16:12.494Z,34.08
2022-12-06T22:18:44.799Z,33.92
2022-12-06T22:21:19.078Z,30.30
2022-12-06T22:23:46.436Z,28.75
2022-12-06T22:26:16.321Z,28.10
2022-12-06T22:28:43.228Z,32.47
2022-12-06T22:31:11.483Z,28.40
2022-12-06T22:33:38.717Z,27.05
2022-12-06T22:36:06.220Z,28.75
2022-12-06T22:38:33.147Z,31.38
2022-12-06T22:41:01.359Z,25.08
2022-12-06T22:43:28.974Z,24.40
2022-12-06T22:45:56.218Z,24.45
2022-12-06T22:48:23.127Z,22.58
2022-12-06T22:50:49.935Z,26.35
2022-12-06T22:53:16.688Z,32.92
2022-12-06T22:55:43.483Z,24.92
2022-12-06T22:58:10.316Z,24.77
2022-12-06T23:00:37.107Z,22.50
2022-12-06T23:03:03.954Z,24.67
2022-12-06T23:05:30.781Z,22.10
2022-12-06T23:07:57.565Z,23.88
2022-12-06T23:10:24.447Z,19.15
2022-12-06T23:12:51.200Z,21.25
2022-12-06T23:15:18.051Z,19.38
2022-12-06T23:17:44.858Z,19.40
2022-12-06T23:20:11.908Z,20.90
2022-12-06T23:22:39.478Z,18.92
2022-12-06T23:25:06.927Z,18.88
2022-12-06T23:27:34.178Z,20.35
2022-12-06T23:30:01.224Z,20.92
2022-12-06T23:32:30.053Z,21.02
2022-12-06T23:34:56.861Z,22.25
2022-12-06T23:37:23.678Z,20.48
2022-12-06T23:39:50.468Z,18.73
2022-12-06T23:42:17.257Z,16.45
2022-12-06T23:44:44.036Z,20.83
2022-12-06T23:47:10.798Z,22.95
2022-12-06T23:49:37.577Z,20.13
2022-12-06T23:52:04.582Z,17.48
2022-12-06T23:54:31.362Z,20.27
2022-12-06T23:56:58.172Z,19.10
2022-12-06T23:59:24.990Z,18.60
